sensor_id;sensor_type;location;lat;lon;timestamp;temperature;humidity
60868;DHT22;46702;48.370;10.794;2023-09-07T00:01:19;14.80;99.90
60868;DHT22;46702;48.370;10.794;2023-09-07T00:03:45;14.80;99.90
60868;DHT22;46702;48.370;10.794;2023-09-07T00:06:10;14.70;99.90
60868;DHT22;46702;48.370;10.794;2023-09-07T00:08:36;14.70;99.90
60868;DHT22;46702;48.370;10.794;2023-09-07T00:11:08;14.70;99.90
60868;DHT22;46702;48.370;10.794;2023-09-07T00:13:37;14.70;99.90
60868;DHT22;46702;48.370;10.794;2023-09-07T00:16:04;14.60;99.90
60868;DHT22;46702;48.370;10.794;2023-09-07T00:18:30;14.60;99.90
60868;DHT22;46702;48.370;10.794;2023-09-07T00:20:56;14.50;99.90
60868;DHT22;46702;48.370;10.794;2023-09-07T00:23:22;14.50;99.90
60868;DHT22;46702;48.370;10.794;2023-09-07T00:25:48;14.50;99.90
60868;DHT22;46702;48.370;10.794;2023-09-07T00:28:13;14.50;99.90
60868;DHT22;46702;48.370;10.794;2023-09-07T00:30:39;14.50;99.90
60868;DHT22;46702;48.370;10.794;2023-09-07T00:33:06;14.50;99.90
60868;DHT22;46702;48.370;10.794;2023-09-07T00:35:32;14.50;99.90
60868;DHT22;46702;48.370;10.794;2023-09-07T00:37:58;14.40;99.90
60868;DHT22;46702;48.370;10.794;2023-09-07T00:40:23;14.40;99.90
60868;DHT22;46702;48.370;10.794;2023-09-07T00:42:50;14.30;99.90
60868;DHT22;46702;48.370;10.794;2023-09-07T00:45:16;14.30;99.90
60868;DHT22;46702;48.370;10.794;2023-09-07T00:47:41;14.30;99.90
60868;DHT22;46702;48.370;10.794;2023-09-07T00:50:07;14.30;99.90
60868;DHT22;46702;48.370;10.794;2023-09-07T00:52:37;14.30;99.90
60868;DHT22;46702;48.370;10.794;2023-09-07T00:55:05;14.20;99.90
60868;DHT22;46702;48.370;10.794;2023-09-07T00:57:32;14.20;99.90
60868;DHT22;46702;48.370;10.794;2023-09-07T00:59:58;14.20;99.90
60868;DHT22;46702;48.370;10.794;2023-09-07T01:02:23;14.20;99.90
60868;DHT22;46702;48.370;10.794;2023-09-07T01:04:51;14.20;99.90
60868;DHT22;46702;48.370;10.794;2023-09-07T01:07:24;14.10;99.90
60868;DHT22;46702;48.370;10.794;2023-09-07T01:09:54;13.70;99.90
60868;DHT22;46702;48.370;10.794;2023-09-07T01:12:21;13.40;99.90
60868;DHT22;46702;48.370;10.794;2023-09-07T01:14:46;13.20;99.90
60868;DHT22;46702;48.370;10.794;2023-09-07T01:17:12;13.30;99.90
60868;DHT22;46702;48.370;10.794;2023-09-07T01:19:39;13.40;99.90
60868;DHT22;46702;48.370;10.794;2023-09-07T01:22:07;13.50;99.90
60868;DHT22;46702;48.370;10.794;2023-09-07T01:24:34;13.60;99.90
60868;DHT22;46702;48.370;10.794;2023-09-07T01:27:01;13.60;99.90
60868;DHT22;46702;48.370;10.794;2023-09-07T01:29:29;13.60;99.90
60868;DHT22;46702;48.370;10.794;2023-09-07T01:31:55;13.60;99.90
60868;DHT22;46702;48.370;10.794;2023-09-07T01:34:21;13.50;99.90
60868;DHT22;46702;48.370;10.794;2023-09-07T01:36:46;13.30;99.90
60868;DHT22;46702;48.370;10.794;2023-09-07T01:39:12;13.10;99.90
60868;DHT22;46702;48.370;10.794;2023-09-07T01:41:37;13.20;99.90
60868;DHT22;46702;48.370;10.794;2023-09-07T01:44:03;13.20;99.90
60868;DHT22;46702;48.370;10.794;2023-09-07T01:46:29;13.20;99.90
60868;DHT22;46702;48.370;10.794;2023-09-07T01:48:54;13.30;99.90
60868;DHT22;46702;48.370;10.794;2023-09-07T01:51:20;13.30;99.90
60868;DHT22;46702;48.370;10.794;2023-09-07T01:53:49;13.30;99.90
60868;DHT22;46702;48.370;10.794;2023-09-07T01:56:16;13.30;99.90
60868;DHT22;46702;48.370;10.794;2023-09-07T01:58:42;13.30;99.90
60868;DHT22;46702;48.370;10.794;2023-09-07T02:01:26;13.20;99.90
60868;DHT22;46702;48.370;10.794;2023-09-07T02:03:52;13.20;99.90
60868;DHT22;46702;48.370;10.794;2023-09-07T02:06:18;13.20;99.90
60868;DHT22;46702;48.370;10.794;2023-09-07T02:08:44;13.20;99.90
60868;DHT22;46702;48.370;10.794;2023-09-07T02:11:09;13.20;99.90
60868;DHT22;46702;48.370;10.794;2023-09-07T02:13:35;13.10;99.90
60868;DHT22;46702;48.370;10.794;2023-09-07T02:16:04;13.20;99.90
60868;DHT22;46702;48.370;10.794;2023-09-07T02:18:32;13.20;99.90
60868;DHT22;46702;48.370;10.794;2023-09-07T02:21:04;13.10;99.90
60868;DHT22;46702;48.370;10.794;2023-09-07T02:23:33;13.10;99.90
60868;DHT22;46702;48.370;10.794;2023-09-07T02:25:59;13.10;99.90
60868;DHT22;46702;48.370;10.794;2023-09-07T02:28:25;13.10;99.90
60868;DHT22;46702;48.370;10.794;2023-09-07T02:30:54;13.00;99.90
60868;DHT22;46702;48.370;10.794;2023-09-07T02:33:20;12.90;99.90
60868;DHT22;46702;48.370;10.794;2023-09-07T02:35:47;13.00;99.90
60868;DHT22;46702;48.370;10.794;2023-09-07T02:38:13;12.90;99.90
60868;DHT22;46702;48.370;10.794;2023-09-07T02:40:43;12.90;99.90
60868;DHT22;46702;48.370;10.794;2023-09-07T02:43:12;12.70;99.90
60868;DHT22;46702;48.370;10.794;2023-09-07T02:45:38;12.70;99.90
60868;DHT22;46702;48.370;10.794;2023-09-07T02:48:04;12.60;99.90
60868;DHT22;46702;48.370;10.794;2023-09-07T02:50:32;12.60;99.90
60868;DHT22;46702;48.370;10.794;2023-09-07T02:52:59;12.60;99.90
60868;DHT22;46702;48.370;10.794;2023-09-07T02:55:25;12.60;99.90
60868;DHT22;46702;48.370;10.794;2023-09-07T02:57:51;12.70;99.90
60868;DHT22;46702;48.370;10.794;2023-09-07T03:00:17;12.60;99.90
60868;DHT22;46702;48.370;10.794;2023-09-07T03:02:43;12.60;99.90
60868;DHT22;46702;48.370;10.794;2023-09-07T03:05:09;12.60;99.90
60868;DHT22;46702;48.370;10.794;2023-09-07T03:07:35;12.70;99.90
60868;DHT22;46702;48.370;10.794;2023-09-07T03:10:00;12.70;99.90
60868;DHT22;46702;48.370;10.794;2023-09-07T03:12:27;12.60;99.90
60868;DHT22;46702;48.370;10.794;2023-09-07T03:14:53;12.70;99.90
60868;DHT22;46702;48.370;10.794;2023-09-07T03:17:18;12.60;99.90
60868;DHT22;46702;48.370;10.794;2023-09-07T03:19:46;12.60;99.90
60868;DHT22;46702;48.370;10.794;2023-09-07T03:22:12;12.60;99.90
60868;DHT22;46702;48.370;10.794;2023-09-07T03:24:38;12.60;99.90
60868;DHT22;46702;48.370;10.794;2023-09-07T03:27:04;12.40;99.90
60868;DHT22;46702;48.370;10.794;2023-09-07T03:29:31;12.30;99.90
60868;DHT22;46702;48.370;10.794;2023-09-07T03:32:01;12.30;99.90
60868;DHT22;46702;48.370;10.794;2023-09-07T03:34:27;12.40;99.90
60868;DHT22;46702;48.370;10.794;2023-09-07T03:36:53;12.40;99.90
60868;DHT22;46702;48.370;10.794;2023-09-07T03:39:19;12.30;99.90
60868;DHT22;46702;48.370;10.794;2023-09-07T03:41:46;12.30;99.90
60868;DHT22;46702;48.370;10.794;2023-09-07T03:44:12;12.30;99.90
60868;DHT22;46702;48.370;10.794;2023-09-07T03:46:38;12.30;99.90
60868;DHT22;46702;48.370;10.794;2023-09-07T03:49:03;12.30;99.90
60868;DHT22;46702;48.370;10.794;2023-09-07T03:51:29;12.20;99.90
60868;DHT22;46702;48.370;10.794;2023-09-07T03:53:54;12.10;99.90
60868;DHT22;46702;48.370;10.794;2023-09-07T03:56:20;11.90;99.90
60868;DHT22;46702;48.370;10.794;2023-09-07T03:58:45;11.90;99.90
60868;DHT22;46702;48.370;10.794;2023-09-07T04:01:14;11.90;99.90
60868;DHT22;46702;48.370;10.794;2023-09-07T04:03:40;12.00;99.90
60868;DHT22;46702;48.370;10.794;2023-09-07T04:06:06;12.00;99.90
60868;DHT22;46702;48.370;10.794;2023-09-07T04:08:32;12.00;99.90
60868;DHT22;46702;48.370;10.794;2023-09-07T04:10:57;12.10;99.90
60868;DHT22;46702;48.370;10.794;2023-09-07T04:13:23;12.10;99.90
60868;DHT22;46702;48.370;10.794;2023-09-07T04:15:49;12.10;99.90
60868;DHT22;46702;48.370;10.794;2023-09-07T04:18:14;12.10;99.90
60868;DHT22;46702;48.370;10.794;2023-09-07T04:20:42;12.10;99.90
60868;DHT22;46702;48.370;10.794;2023-09-07T04:23:07;12.10;99.90
60868;DHT22;46702;48.370;10.794;2023-09-07T04:25:33;12.10;99.90
60868;DHT22;46702;48.370;10.794;2023-09-07T04:27:58;12.10;99.90
60868;DHT22;46702;48.370;10.794;2023-09-07T04:30:24;12.10;99.90
60868;DHT22;46702;48.370;10.794;2023-09-07T04:32:50;12.10;99.90
60868;DHT22;46702;48.370;10.794;2023-09-07T04:35:15;12.10;99.90
60868;DHT22;46702;48.370;10.794;2023-09-07T04:37:45;12.00;99.90
60868;DHT22;46702;48.370;10.794;2023-09-07T04:40:11;12.00;99.90
60868;DHT22;46702;48.370;10.794;2023-09-07T04:42:37;12.00;99.90
60868;DHT22;46702;48.370;10.794;2023-09-07T04:45:05;11.90;99.90
60868;DHT22;46702;48.370;10.794;2023-09-07T04:47:30;11.90;99.90
60868;DHT22;46702;48.370;10.794;2023-09-07T04:49:56;11.80;99.90
60868;DHT22;46702;48.370;10.794;2023-09-07T04:52:22;11.80;99.90
60868;DHT22;46702;48.370;10.794;2023-09-07T04:54:47;11.80;99.90
60868;DHT22;46702;48.370;10.794;2023-09-07T04:57:16;11.80;99.90
60868;DHT22;46702;48.370;10.794;2023-09-07T04:59:44;11.80;99.90
60868;DHT22;46702;48.370;10.794;2023-09-07T05:02:10;11.90;99.90
60868;DHT22;46702;48.370;10.794;2023-09-07T05:04:37;11.90;99.90
60868;DHT22;46702;48.370;10.794;2023-09-07T05:07:03;11.80;99.90
60868;DHT22;46702;48.370;10.794;2023-09-07T05:09:28;11.80;99.90
60868;DHT22;46702;48.370;10.794;2023-09-07T05:11:55;11.80;99.90
60868;DHT22;46702;48.370;10.794;2023-09-07T05:14:21;11.80;99.90
60868;DHT22;46702;48.370;10.794;2023-09-07T05:16:47;11.80;99.90
60868;DHT22;46702;48.370;10.794;2023-09-07T05:19:13;11.80;99.90
60868;DHT22;46702;48.370;10.794;2023-09-07T05:21:39;11.70;99.90
60868;DHT22;46702;48.370;10.794;2023-09-07T05:24:05;11.70;99.90
60868;DHT22;46702;48.370;10.794;2023-09-07T05:26:30;11.60;99.90
60868;DHT22;46702;48.370;10.794;2023-09-07T05:28:56;11.50;99.90
60868;DHT22;46702;48.370;10.794;2023-09-07T05:31:21;11.60;99.90
60868;DHT22;46702;48.370;10.794;2023-09-07T05:33:47;11.60;99.90
60868;DHT22;46702;48.370;10.794;2023-09-07T05:36:13;11.70;99.90
60868;DHT22;46702;48.370;10.794;2023-09-07T05:38:38;11.80;99.90
60868;DHT22;46702;48.370;10.794;2023-09-07T05:41:04;11.80;99.90
60868;DHT22;46702;48.370;10.794;2023-09-07T05:43:29;11.90;99.90
60868;DHT22;46702;48.370;10.794;2023-09-07T05:45:55;11.90;99.90
60868;DHT22;46702;48.370;10.794;2023-09-07T05:48:21;11.90;99.90
60868;DHT22;46702;48.370;10.794;2023-09-07T05:50:46;11.90;99.90
60868;DHT22;46702;48.370;10.794;2023-09-07T05:53:21;12.00;99.90
60868;DHT22;46702;48.370;10.794;2023-09-07T05:55:52;12.10;99.90
60868;DHT22;46702;48.370;10.794;2023-09-07T05:58:18;12.20;99.90
60868;DHT22;46702;48.370;10.794;2023-09-07T06:00:44;12.20;99.90
60868;DHT22;46702;48.370;10.794;2023-09-07T06:03:10;12.30;99.90
60868;DHT22;46702;48.370;10.794;2023-09-07T06:05:36;12.40;99.90
60868;DHT22;46702;48.370;10.794;2023-09-07T06:08:02;12.50;99.90
60868;DHT22;46702;48.370;10.794;2023-09-07T06:10:28;12.50;99.90
60868;DHT22;46702;48.370;10.794;2023-09-07T06:12:55;12.70;99.90
60868;DHT22;46702;48.370;10.794;2023-09-07T06:15:21;12.80;99.90
60868;DHT22;46702;48.370;10.794;2023-09-07T06:17:47;13.00;99.90
60868;DHT22;46702;48.370;10.794;2023-09-07T06:20:12;13.10;99.90
60868;DHT22;46702;48.370;10.794;2023-09-07T06:22:38;13.30;99.90
60868;DHT22;46702;48.370;10.794;2023-09-07T06:25:04;13.50;99.90
60868;DHT22;46702;48.370;10.794;2023-09-07T06:27:29;13.70;99.90
60868;DHT22;46702;48.370;10.794;2023-09-07T06:29:55;13.90;99.90
60868;DHT22;46702;48.370;10.794;2023-09-07T06:32:21;14.10;99.90
60868;DHT22;46702;48.370;10.794;2023-09-07T06:34:46;14.30;99.90
60868;DHT22;46702;48.370;10.794;2023-09-07T06:37:12;14.40;99.90
60868;DHT22;46702;48.370;10.794;2023-09-07T06:39:38;14.60;99.90
60868;DHT22;46702;48.370;10.794;2023-09-07T06:42:04;14.70;99.90
60868;DHT22;46702;48.370;10.794;2023-09-07T06:44:29;14.90;99.90
60868;DHT22;46702;48.370;10.794;2023-09-07T06:46:55;15.00;99.90
60868;DHT22;46702;48.370;10.794;2023-09-07T06:49:21;15.10;99.90
60868;DHT22;46702;48.370;10.794;2023-09-07T06:51:47;15.20;99.90
60868;DHT22;46702;48.370;10.794;2023-09-07T06:54:13;15.40;99.90
60868;DHT22;46702;48.370;10.794;2023-09-07T06:56:39;15.50;99.90
60868;DHT22;46702;48.370;10.794;2023-09-07T06:59:05;15.60;99.90
60868;DHT22;46702;48.370;10.794;2023-09-07T07:01:30;15.70;99.90
60868;DHT22;46702;48.370;10.794;2023-09-07T07:03:56;15.90;99.90
60868;DHT22;46702;48.370;10.794;2023-09-07T07:06:22;16.00;99.90
60868;DHT22;46702;48.370;10.794;2023-09-07T07:08:48;16.20;99.90
60868;DHT22;46702;48.370;10.794;2023-09-07T07:11:14;16.20;99.90
60868;DHT22;46702;48.370;10.794;2023-09-07T07:13:39;16.40;99.90
60868;DHT22;46702;48.370;10.794;2023-09-07T07:16:05;16.50;99.90
60868;DHT22;46702;48.370;10.794;2023-09-07T07:18:31;16.60;99.90
60868;DHT22;46702;48.370;10.794;2023-09-07T07:20:57;16.70;99.90
60868;DHT22;46702;48.370;10.794;2023-09-07T07:23:22;17.00;99.90
60868;DHT22;46702;48.370;10.794;2023-09-07T07:25:48;17.10;99.90
60868;DHT22;46702;48.370;10.794;2023-09-07T07:28:13;17.20;99.90
60868;DHT22;46702;48.370;10.794;2023-09-07T07:30:39;17.30;99.90
60868;DHT22;46702;48.370;10.794;2023-09-07T07:33:08;17.30;99.90
60868;DHT22;46702;48.370;10.794;2023-09-07T07:35:34;17.40;99.90
60868;DHT22;46702;48.370;10.794;2023-09-07T07:38:00;17.50;99.90
60868;DHT22;46702;48.370;10.794;2023-09-07T07:40:26;17.60;99.90
60868;DHT22;46702;48.370;10.794;2023-09-07T07:42:52;17.70;99.90
60868;DHT22;46702;48.370;10.794;2023-09-07T07:45:18;17.80;99.90
60868;DHT22;46702;48.370;10.794;2023-09-07T07:47:45;17.90;99.90
60868;DHT22;46702;48.370;10.794;2023-09-07T07:50:11;18.00;99.90
60868;DHT22;46702;48.370;10.794;2023-09-07T07:52:37;18.00;99.90
60868;DHT22;46702;48.370;10.794;2023-09-07T07:55:02;18.10;99.90
60868;DHT22;46702;48.370;10.794;2023-09-07T07:57:28;18.20;99.90
60868;DHT22;46702;48.370;10.794;2023-09-07T07:59:55;18.40;99.90
60868;DHT22;46702;48.370;10.794;2023-09-07T08:02:20;18.40;99.90
60868;DHT22;46702;48.370;10.794;2023-09-07T08:04:46;18.40;99.90
60868;DHT22;46702;48.370;10.794;2023-09-07T08:07:11;18.50;99.90
60868;DHT22;46702;48.370;10.794;2023-09-07T08:09:37;18.60;99.90
60868;DHT22;46702;48.370;10.794;2023-09-07T08:12:04;18.70;99.90
60868;DHT22;46702;48.370;10.794;2023-09-07T08:14:30;18.80;99.90
60868;DHT22;46702;48.370;10.794;2023-09-07T08:16:56;19.00;99.90
60868;DHT22;46702;48.370;10.794;2023-09-07T08:19:22;19.20;99.90
60868;DHT22;46702;48.370;10.794;2023-09-07T08:21:48;19.20;99.90
60868;DHT22;46702;48.370;10.794;2023-09-07T08:24:13;19.20;99.90
60868;DHT22;46702;48.370;10.794;2023-09-07T08:26:39;19.30;99.90
60868;DHT22;46702;48.370;10.794;2023-09-07T08:29:05;19.40;99.90
60868;DHT22;46702;48.370;10.794;2023-09-07T08:31:32;19.40;99.90
60868;DHT22;46702;48.370;10.794;2023-09-07T08:34:03;19.40;99.90
60868;DHT22;46702;48.370;10.794;2023-09-07T08:36:29;19.50;99.90
60868;DHT22;46702;48.370;10.794;2023-09-07T08:38:58;19.60;99.90
60868;DHT22;46702;48.370;10.794;2023-09-07T08:41:26;19.60;99.90
60868;DHT22;46702;48.370;10.794;2023-09-07T08:43:54;19.70;99.90
60868;DHT22;46702;48.370;10.794;2023-09-07T08:46:22;19.80;99.90
60868;DHT22;46702;48.370;10.794;2023-09-07T08:48:52;19.90;99.90
60868;DHT22;46702;48.370;10.794;2023-09-07T08:51:19;20.00;99.90
60868;DHT22;46702;48.370;10.794;2023-09-07T08:53:45;20.10;99.90
60868;DHT22;46702;48.370;10.794;2023-09-07T08:56:15;20.20;99.90
60868;DHT22;46702;48.370;10.794;2023-09-07T08:58:41;20.20;99.90
60868;DHT22;46702;48.370;10.794;2023-09-07T09:01:07;20.20;99.90
60868;DHT22;46702;48.370;10.794;2023-09-07T09:03:38;20.40;99.90
60868;DHT22;46702;48.370;10.794;2023-09-07T09:06:04;20.40;99.90
60868;DHT22;46702;48.370;10.794;2023-09-07T09:08:46;20.40;99.90
60868;DHT22;46702;48.370;10.794;2023-09-07T09:11:14;20.50;99.90
60868;DHT22;46702;48.370;10.794;2023-09-07T09:13:41;20.50;99.90
60868;DHT22;46702;48.370;10.794;2023-09-07T09:16:07;20.60;99.90
60868;DHT22;46702;48.370;10.794;2023-09-07T09:18:33;20.90;99.90
60868;DHT22;46702;48.370;10.794;2023-09-07T09:20:58;21.00;99.90
60868;DHT22;46702;48.370;10.794;2023-09-07T09:23:34;21.00;99.90
60868;DHT22;46702;48.370;10.794;2023-09-07T09:26:01;21.20;99.90
60868;DHT22;46702;48.370;10.794;2023-09-07T09:28:30;21.40;99.90
60868;DHT22;46702;48.370;10.794;2023-09-07T09:30:58;21.30;99.90
60868;DHT22;46702;48.370;10.794;2023-09-07T09:33:23;21.50;99.90
60868;DHT22;46702;48.370;10.794;2023-09-07T09:35:51;21.60;99.90
60868;DHT22;46702;48.370;10.794;2023-09-07T09:38:18;21.70;99.90
60868;DHT22;46702;48.370;10.794;2023-09-07T09:40:44;21.70;99.90
60868;DHT22;46702;48.370;10.794;2023-09-07T09:43:11;21.80;99.90
60868;DHT22;46702;48.370;10.794;2023-09-07T09:45:38;21.80;99.90
60868;DHT22;46702;48.370;10.794;2023-09-07T09:48:05;21.80;99.90
60868;DHT22;46702;48.370;10.794;2023-09-07T09:50:31;21.90;99.90
60868;DHT22;46702;48.370;10.794;2023-09-07T09:52:58;21.90;99.90
60868;DHT22;46702;48.370;10.794;2023-09-07T09:55:25;22.00;99.90
60868;DHT22;46702;48.370;10.794;2023-09-07T09:57:51;22.10;99.90
60868;DHT22;46702;48.370;10.794;2023-09-07T10:00:17;22.10;99.90
60868;DHT22;46702;48.370;10.794;2023-09-07T10:05:38;22.20;99.90
60868;DHT22;46702;48.370;10.794;2023-09-07T10:08:09;22.30;99.90
60868;DHT22;46702;48.370;10.794;2023-09-07T10:10:37;22.60;99.90
60868;DHT22;46702;48.370;10.794;2023-09-07T10:13:05;22.50;99.90
60868;DHT22;46702;48.370;10.794;2023-09-07T10:15:31;22.60;99.90
60868;DHT22;46702;48.370;10.794;2023-09-07T10:18:15;22.60;99.90
60868;DHT22;46702;48.370;10.794;2023-09-07T10:23:17;22.90;99.90
60868;DHT22;46702;48.370;10.794;2023-09-07T10:25:42;23.10;99.90
60868;DHT22;46702;48.370;10.794;2023-09-07T10:28:24;23.20;99.90
60868;DHT22;46702;48.370;10.794;2023-09-07T10:31:04;23.20;99.90
60868;DHT22;46702;48.370;10.794;2023-09-07T10:33:31;23.40;99.90
60868;DHT22;46702;48.370;10.794;2023-09-07T10:35:57;23.30;99.90
60868;DHT22;46702;48.370;10.794;2023-09-07T10:38:23;23.40;99.90
60868;DHT22;46702;48.370;10.794;2023-09-07T10:40:58;23.60;99.90
60868;DHT22;46702;48.370;10.794;2023-09-07T10:43:31;23.40;99.90
60868;DHT22;46702;48.370;10.794;2023-09-07T10:45:59;23.60;99.90
60868;DHT22;46702;48.370;10.794;2023-09-07T10:48:27;23.70;99.90
60868;DHT22;46702;48.370;10.794;2023-09-07T10:50:53;23.90;99.90
60868;DHT22;46702;48.370;10.794;2023-09-07T10:53:30;23.80;99.90
60868;DHT22;46702;48.370;10.794;2023-09-07T10:56:03;24.00;99.90
60868;DHT22;46702;48.370;10.794;2023-09-07T10:58:33;24.00;99.90
60868;DHT22;46702;48.370;10.794;2023-09-07T11:01:00;24.00;99.90
60868;DHT22;46702;48.370;10.794;2023-09-07T11:03:27;24.10;99.90
60868;DHT22;46702;48.370;10.794;2023-09-07T11:06:00;23.90;99.90
60868;DHT22;46702;48.370;10.794;2023-09-07T11:08:29;23.90;99.90
60868;DHT22;46702;48.370;10.794;2023-09-07T11:10:55;23.90;99.90
60868;DHT22;46702;48.370;10.794;2023-09-07T11:13:22;24.10;99.90
60868;DHT22;46702;48.370;10.794;2023-09-07T11:15:49;24.30;99.90
60868;DHT22;46702;48.370;10.794;2023-09-07T11:18:20;24.30;99.90
60868;DHT22;46702;48.370;10.794;2023-09-07T11:20:46;24.50;99.90
60868;DHT22;46702;48.370;10.794;2023-09-07T11:23:12;24.70;99.90
60868;DHT22;46702;48.370;10.794;2023-09-07T11:25:39;24.50;99.90
60868;DHT22;46702;48.370;10.794;2023-09-07T11:28:05;24.40;99.90
60868;DHT22;46702;48.370;10.794;2023-09-07T11:30:33;24.40;99.90
60868;DHT22;46702;48.370;10.794;2023-09-07T11:33:02;24.60;99.90
60868;DHT22;46702;48.370;10.794;2023-09-07T11:35:28;24.70;99.90
60868;DHT22;46702;48.370;10.794;2023-09-07T11:37:53;24.90;99.90
60868;DHT22;46702;48.370;10.794;2023-09-07T11:40:19;24.90;99.90
60868;DHT22;46702;48.370;10.794;2023-09-07T11:42:45;24.80;99.90
60868;DHT22;46702;48.370;10.794;2023-09-07T11:45:11;24.90;99.90
60868;DHT22;46702;48.370;10.794;2023-09-07T11:47:38;25.00;99.90
60868;DHT22;46702;48.370;10.794;2023-09-07T11:50:05;24.90;99.90
60868;DHT22;46702;48.370;10.794;2023-09-07T11:52:34;24.80;99.90
60868;DHT22;46702;48.370;10.794;2023-09-07T11:55:00;24.90;99.90
60868;DHT22;46702;48.370;10.794;2023-09-07T11:57:25;24.70;99.90
60868;DHT22;46702;48.370;10.794;2023-09-07T11:59:51;25.00;99.90
60868;DHT22;46702;48.370;10.794;2023-09-07T12:02:16;24.90;99.90
60868;DHT22;46702;48.370;10.794;2023-09-07T12:04:43;24.90;99.90
60868;DHT22;46702;48.370;10.794;2023-09-07T12:07:09;24.90;99.90
60868;DHT22;46702;48.370;10.794;2023-09-07T12:09:35;24.90;99.90
60868;DHT22;46702;48.370;10.794;2023-09-07T12:12:01;25.00;99.90
60868;DHT22;46702;48.370;10.794;2023-09-07T12:14:26;25.20;99.90
60868;DHT22;46702;48.370;10.794;2023-09-07T12:16:52;25.00;99.90
60868;DHT22;46702;48.370;10.794;2023-09-07T12:19:17;25.00;99.90
60868;DHT22;46702;48.370;10.794;2023-09-07T12:21:43;25.10;99.90
60868;DHT22;46702;48.370;10.794;2023-09-07T12:24:09;25.00;99.90
60868;DHT22;46702;48.370;10.794;2023-09-07T12:26:35;25.10;99.90
60868;DHT22;46702;48.370;10.794;2023-09-07T12:29:00;25.00;99.90
60868;DHT22;46702;48.370;10.794;2023-09-07T12:31:26;25.10;99.90
60868;DHT22;46702;48.370;10.794;2023-09-07T12:33:52;25.30;99.90
60868;DHT22;46702;48.370;10.794;2023-09-07T12:36:17;25.30;99.90
60868;DHT22;46702;48.370;10.794;2023-09-07T12:38:43;25.30;99.90
60868;DHT22;46702;48.370;10.794;2023-09-07T12:41:09;25.40;99.90
60868;DHT22;46702;48.370;10.794;2023-09-07T12:43:34;25.30;99.90
60868;DHT22;46702;48.370;10.794;2023-09-07T12:46:00;25.40;99.90
60868;DHT22;46702;48.370;10.794;2023-09-07T12:48:25;25.50;99.90
60868;DHT22;46702;48.370;10.794;2023-09-07T12:50:51;25.60;99.90
60868;DHT22;46702;48.370;10.794;2023-09-07T12:53:17;25.60;99.90
60868;DHT22;46702;48.370;10.794;2023-09-07T12:55:43;25.70;99.90
60868;DHT22;46702;48.370;10.794;2023-09-07T12:58:08;25.80;99.90
60868;DHT22;46702;48.370;10.794;2023-09-07T13:00:34;25.90;99.90
60868;DHT22;46702;48.370;10.794;2023-09-07T13:03:00;25.80;99.90
60868;DHT22;46702;48.370;10.794;2023-09-07T13:05:25;25.90;99.90
60868;DHT22;46702;48.370;10.794;2023-09-07T13:07:51;25.90;99.90
60868;DHT22;46702;48.370;10.794;2023-09-07T13:10:17;25.70;99.90
60868;DHT22;46702;48.370;10.794;2023-09-07T13:12:44;25.70;99.90
60868;DHT22;46702;48.370;10.794;2023-09-07T13:15:09;25.70;99.90
60868;DHT22;46702;48.370;10.794;2023-09-07T13:17:35;25.70;99.90
60868;DHT22;46702;48.370;10.794;2023-09-07T13:20:01;25.80;99.90
60868;DHT22;46702;48.370;10.794;2023-09-07T13:22:26;25.80;99.90
60868;DHT22;46702;48.370;10.794;2023-09-07T13:24:52;25.80;99.90
60868;DHT22;46702;48.370;10.794;2023-09-07T13:27:18;25.80;99.90
60868;DHT22;46702;48.370;10.794;2023-09-07T13:29:43;25.70;99.90
60868;DHT22;46702;48.370;10.794;2023-09-07T13:32:09;25.80;99.90
60868;DHT22;46702;48.370;10.794;2023-09-07T13:34:34;26.00;99.90
60868;DHT22;46702;48.370;10.794;2023-09-07T13:37:00;26.00;99.90
60868;DHT22;46702;48.370;10.794;2023-09-07T13:39:25;25.90;99.90
60868;DHT22;46702;48.370;10.794;2023-09-07T13:41:51;26.10;99.90
60868;DHT22;46702;48.370;10.794;2023-09-07T13:44:17;26.20;99.90
60868;DHT22;46702;48.370;10.794;2023-09-07T13:46:43;26.20;99.90
60868;DHT22;46702;48.370;10.794;2023-09-07T13:49:09;26.20;99.90
60868;DHT22;46702;48.370;10.794;2023-09-07T13:51:35;26.20;99.90
60868;DHT22;46702;48.370;10.794;2023-09-07T13:54:07;26.10;99.90
60868;DHT22;46702;48.370;10.794;2023-09-07T13:56:33;26.10;99.90
60868;DHT22;46702;48.370;10.794;2023-09-07T13:58:59;26.20;99.90
60868;DHT22;46702;48.370;10.794;2023-09-07T14:01:25;26.30;99.90
60868;DHT22;46702;48.370;10.794;2023-09-07T14:03:51;26.20;99.90
60868;DHT22;46702;48.370;10.794;2023-09-07T14:06:17;26.20;99.90
60868;DHT22;46702;48.370;10.794;2023-09-07T14:08:46;26.30;99.90
60868;DHT22;46702;48.370;10.794;2023-09-07T14:11:13;26.20;99.90
60868;DHT22;46702;48.370;10.794;2023-09-07T14:13:39;26.20;99.90
60868;DHT22;46702;48.370;10.794;2023-09-07T14:16:05;26.30;99.90
60868;DHT22;46702;48.370;10.794;2023-09-07T14:18:30;26.20;99.90
60868;DHT22;46702;48.370;10.794;2023-09-07T14:20:56;26.20;99.90
60868;DHT22;46702;48.370;10.794;2023-09-07T14:23:24;26.10;99.90
60868;DHT22;46702;48.370;10.794;2023-09-07T14:25:51;26.00;99.90
60868;DHT22;46702;48.370;10.794;2023-09-07T14:28:17;26.00;99.90
60868;DHT22;46702;48.370;10.794;2023-09-07T14:30:43;26.00;99.90
60868;DHT22;46702;48.370;10.794;2023-09-07T14:33:08;25.90;99.90
60868;DHT22;46702;48.370;10.794;2023-09-07T14:35:34;26.00;99.90
60868;DHT22;46702;48.370;10.794;2023-09-07T14:38:00;26.00;99.90
60868;DHT22;46702;48.370;10.794;2023-09-07T14:40:28;26.00;99.90
60868;DHT22;46702;48.370;10.794;2023-09-07T14:42:54;25.90;99.90
60868;DHT22;46702;48.370;10.794;2023-09-07T14:45:23;25.80;99.90
60868;DHT22;46702;48.370;10.794;2023-09-07T14:47:49;25.80;99.90
60868;DHT22;46702;48.370;10.794;2023-09-07T14:50:15;25.80;99.90
60868;DHT22;46702;48.370;10.794;2023-09-07T14:52:41;25.80;99.90
60868;DHT22;46702;48.370;10.794;2023-09-07T14:55:09;25.80;99.90
60868;DHT22;46702;48.370;10.794;2023-09-07T14:57:35;25.80;99.90
60868;DHT22;46702;48.370;10.794;2023-09-07T15:00:02;25.60;99.90
60868;DHT22;46702;48.370;10.794;2023-09-07T15:02:29;25.70;99.90
60868;DHT22;46702;48.370;10.794;2023-09-07T15:04:54;25.70;99.90
60868;DHT22;46702;48.370;10.794;2023-09-07T15:07:20;25.60;99.90
60868;DHT22;46702;48.370;10.794;2023-09-07T15:09:48;25.60;99.90
60868;DHT22;46702;48.370;10.794;2023-09-07T15:12:14;25.60;99.90
60868;DHT22;46702;48.370;10.794;2023-09-07T15:14:39;25.60;99.90
60868;DHT22;46702;48.370;10.794;2023-09-07T15:17:05;25.50;99.90